createdAt,value
2018-05-17T00:00:55.784Z,90.30
2018-05-17T00:03:23.199Z,90.30
2018-05-17T00:05:51.385Z,90.60
2018-05-17T00:08:18.862Z,90.60
2018-05-17T00:10:46.283Z,90.40
2018-05-17T00:13:14.474Z,90.80
2018-05-17T00:15:47.789Z,90.80
2018-05-17T00:18:15.222Z,90.70
2018-05-17T00:20:42.655Z,91.30
2018-05-17T00:23:10.850Z,92.00
2018-05-17T00:25:38.370Z,92.00
2018-05-17T00:28:07.342Z,91.70
2018-05-17T00:30:34.770Z,91.70
2018-05-17T00:33:02.200Z,91.50
2018-05-17T00:35:30.390Z,91.90
2018-05-17T00:37:57.818Z,91.80
2018-05-17T00:40:25.243Z,92.20
2018-05-17T00:42:52.661Z,92.10
2018-05-17T00:45:20.140Z,92.00
2018-05-17T00:47:47.597Z,91.80
2018-05-17T00:50:15.022Z,91.20
2018-05-17T00:52:43.215Z,91.30
2018-05-17T00:55:10.798Z,91.30
2018-05-17T00:57:38.218Z,92.00
2018-05-17T01:00:06.405Z,91.60
2018-05-17T01:02:33.863Z,91.60
2018-05-17T01:05:01.646Z,91.80
2018-05-17T01:07:29.070Z,92.00
2018-05-17T01:09:57.257Z,92.50
2018-05-17T01:12:25.429Z,92.40
2018-05-17T01:14:52.866Z,92.20
2018-05-17T01:17:21.062Z,92.50
2018-05-17T01:19:48.550Z,92.50
2018-05-17T01:22:15.974Z,92.10
2018-05-17T01:24:43.773Z,92.50
2018-05-17T01:27:11.222Z,92.10
2018-05-17T01:29:38.729Z,92.40
2018-05-17T01:32:06.150Z,92.20
2018-05-17T01:34:33.575Z,92.50
2018-05-17T01:37:12.951Z,91.70
2018-05-17T01:39:40.619Z,92.10
2018-05-17T01:42:08.335Z,92.10
2018-05-17T01:44:35.713Z,91.80
2018-05-17T01:47:03.147Z,92.40
2018-05-17T01:49:30.570Z,92.10
2018-05-17T01:51:57.989Z,91.90
2018-05-17T01:54:25.410Z,92.30
2018-05-17T01:56:52.869Z,92.50
2018-05-17T01:59:20.298Z,92.70
2018-05-17T02:01:47.754Z,92.20
2018-05-17T02:04:15.198Z,92.00
2018-05-17T02:06:42.635Z,93.00
2018-05-17T02:09:10.064Z,92.30
2018-05-17T02:11:37.569Z,92.90
2018-05-17T02:14:04.998Z,93.20
2018-05-17T02:16:32.439Z,92.70
2018-05-17T02:18:59.866Z,92.90
2018-05-17T02:21:28.319Z,93.40
2018-05-17T02:23:55.954Z,93.10
2018-05-17T02:26:23.390Z,92.80
2018-05-17T02:28:50.814Z,90.70
2018-05-17T02:31:19.765Z,92.30
2018-05-17T02:33:48.178Z,92.30
2018-05-17T02:36:18.261Z,91.10
2018-05-17T02:38:45.732Z,91.10
2018-05-17T02:41:13.172Z,92.30
2018-05-17T02:43:40.595Z,92.30
2018-05-17T02:46:08.822Z,92.00
2018-05-17T02:48:36.246Z,91.90
2018-05-17T02:51:03.682Z,92.20
2018-05-17T02:53:32.005Z,92.40
2018-05-17T02:55:59.422Z,92.40
2018-05-17T02:58:27.618Z,93.00
2018-05-17T03:00:55.127Z,93.00
2018-05-17T03:03:24.085Z,92.30
2018-05-17T03:05:51.875Z,92.00
2018-05-17T03:08:19.410Z,92.40
2018-05-17T03:10:46.843Z,92.50
2018-05-17T03:13:14.290Z,92.60
2018-05-17T03:15:41.783Z,92.30
2018-05-17T03:18:09.201Z,92.50
2018-05-17T03:20:37.614Z,92.70
2018-05-17T03:23:05.110Z,92.70
2018-05-17T03:25:32.557Z,92.70
2018-05-17T03:28:00.094Z,93.10
2018-05-17T03:30:27.995Z,93.00
2018-05-17T03:32:55.446Z,92.10
2018-05-17T03:35:22.873Z,92.80
2018-05-17T03:37:50.436Z,93.10
2018-05-17T03:40:17.854Z,92.00
2018-05-17T03:42:46.038Z,93.20
2018-05-17T03:45:13.524Z,93.20
2018-05-17T03:47:40.942Z,92.60
2018-05-17T03:50:09.134Z,92.80
2018-05-17T03:52:36.606Z,92.80
2018-05-17T03:55:04.031Z,92.20
2018-05-17T03:57:33.118Z,92.00
2018-05-17T04:00:01.338Z,92.30
2018-05-17T04:02:40.694Z,92.30
2018-05-17T04:05:20.111Z,92.10
2018-05-17T04:07:47.590Z,91.60
2018-05-17T04:10:15.761Z,91.80
2018-05-17T04:12:43.197Z,90.90
2018-05-17T04:15:10.743Z,92.00
2018-05-17T04:17:38.188Z,91.40
2018-05-17T04:20:06.385Z,92.20
2018-05-17T04:22:33.823Z,92.20
2018-05-17T04:25:01.294Z,91.90
2018-05-17T04:27:28.725Z,92.20
2018-05-17T04:29:56.925Z,90.20
2018-05-17T04:32:24.369Z,90.30
2018-05-17T04:34:51.856Z,91.40
2018-05-17T04:37:19.266Z,91.70
2018-05-17T04:39:47.754Z,90.60
2018-05-17T04:42:16.019Z,90.80
2018-05-17T04:44:43.447Z,90.60
2018-05-17T04:47:10.969Z,91.10
2018-05-17T04:49:38.299Z,91.20
2018-05-17T04:52:07.666Z,90.70
2018-05-17T04:54:35.198Z,90.30
2018-05-17T04:57:02.650Z,90.30
2018-05-17T04:59:30.091Z,90.10
2018-05-17T05:01:57.575Z,89.40
2018-05-17T05:04:24.994Z,90.10
2018-05-17T05:06:53.186Z,90.60
2018-05-17T05:09:20.896Z,90.60
2018-05-17T05:11:49.149Z,89.90
2018-05-17T05:14:16.654Z,89.90
2018-05-17T05:16:44.894Z,86.80
2018-05-17T05:19:13.397Z,87.40
2018-05-17T05:21:40.799Z,88.20
2018-05-17T05:24:08.299Z,87.90
2018-05-17T05:26:36.040Z,86.60
2018-05-17T05:29:03.458Z,89.20
2018-05-17T05:31:31.713Z,88.70
2018-05-17T05:33:59.075Z,88.60
2018-05-17T05:36:26.546Z,87.20
2018-05-17T05:38:54.734Z,84.60
2018-05-17T05:41:22.174Z,84.60
2018-05-17T05:43:50.366Z,84.70
2018-05-17T05:46:19.634Z,85.50
2018-05-17T05:48:47.058Z,85.50
2018-05-17T05:51:14.483Z,85.70
2018-05-17T05:53:41.939Z,85.00
2018-05-17T05:56:09.629Z,83.80
2018-05-17T05:58:37.111Z,83.80
2018-05-17T06:01:04.561Z,82.00
2018-05-17T06:03:31.993Z,80.10
2018-05-17T06:05:59.660Z,79.30
2018-05-17T06:08:28.288Z,79.10
2018-05-17T06:10:55.679Z,80.90
2018-05-17T06:13:23.101Z,81.00
2018-05-17T06:15:50.525Z,81.40
2018-05-17T06:18:17.951Z,79.70
2018-05-17T06:20:45.447Z,80.60
2018-05-17T06:23:12.875Z,81.00
2018-05-17T06:25:40.301Z,79.40
2018-05-17T06:28:08.656Z,74.30
2018-05-17T06:30:36.078Z,74.30
2018-05-17T06:33:03.871Z,73.00
2018-05-17T06:35:31.341Z,72.50
2018-05-17T06:37:58.766Z,70.10
2018-05-17T06:40:26.194Z,72.40
2018-05-17T06:42:53.678Z,73.20
2018-05-17T06:45:21.146Z,75.30
2018-05-17T06:47:48.562Z,74.80
2018-05-17T06:50:16.764Z,72.00
2018-05-17T06:52:44.198Z,72.00
2018-05-17T06:55:11.627Z,72.80
2018-05-17T06:57:39.053Z,72.60
2018-05-17T07:00:06.727Z,74.80
2018-05-17T07:02:34.155Z,73.00
2018-05-17T07:05:01.636Z,70.40
2018-05-17T07:07:29.073Z,72.00
2018-05-17T07:09:56.553Z,72.60
2018-05-17T07:12:23.976Z,72.80
2018-05-17T07:14:51.398Z,73.90
2018-05-17T07:17:19.131Z,73.90
2018-05-17T07:19:46.550Z,74.90
2018-05-17T07:22:14.038Z,73.60
2018-05-17T07:24:41.494Z,72.90
2018-05-17T07:27:08.918Z,73.40
2018-05-17T07:29:36.339Z,72.60
2018-05-17T07:32:03.830Z,71.70
2018-05-17T07:34:31.254Z,69.30
2018-05-17T07:36:58.673Z,65.50
2018-05-17T07:39:26.129Z,64.80
2018-05-17T07:41:53.629Z,63.70
2018-05-17T07:44:21.782Z,62.10
2018-05-17T07:46:49.221Z,61.40
2018-05-17T07:49:16.639Z,61.00
2018-05-17T07:51:45.055Z,61.10
2018-05-17T07:54:12.538Z,60.90
2018-05-17T07:56:39.995Z,57.70
2018-05-17T07:59:07.489Z,58.60
2018-05-17T08:01:35.678Z,62.30
2018-05-17T08:04:03.345Z,62.40
2018-05-17T08:06:31.518Z,63.70
2018-05-17T08:08:58.954Z,62.70
2018-05-17T08:11:27.172Z,58.60
2018-05-17T08:13:54.638Z,58.70
2018-05-17T08:16:22.314Z,58.00
2018-05-17T08:18:50.784Z,60.10
2018-05-17T08:21:18.194Z,61.30
2018-05-17T08:23:46.408Z,59.60
2018-05-17T08:26:13.838Z,59.60
2018-05-17T08:28:41.288Z,59.70
2018-05-17T08:31:09.469Z,57.80
2018-05-17T08:33:37.010Z,57.70
2018-05-17T08:36:04.540Z,59.80
2018-05-17T08:38:31.950Z,59.70
2018-05-17T08:40:59.402Z,62.90
2018-05-17T08:43:26.870Z,61.30
2018-05-17T08:45:54.376Z,61.40
2018-05-17T08:48:21.800Z,59.20
2018-05-17T08:50:49.494Z,59.20
2018-05-17T08:53:16.909Z,59.90
2018-05-17T08:55:44.334Z,58.20
2018-05-17T08:58:12.530Z,59.40
2018-05-17T09:00:40.041Z,59.20
2018-05-17T09:03:08.249Z,60.50
2018-05-17T09:05:36.717Z,58.20
2018-05-17T09:08:04.138Z,58.30
2018-05-17T09:10:31.590Z,57.60
2018-05-17T09:12:59.029Z,56.20
2018-05-17T09:15:26.489Z,55.00
2018-05-17T09:18:01.566Z,56.30
2018-05-17T09:20:30.050Z,57.50
2018-05-17T09:22:57.398Z,55.40
2018-05-17T09:25:25.014Z,57.00
2018-05-17T09:27:52.409Z,57.80
2018-05-17T09:30:19.835Z,58.30
2018-05-17T09:32:47.386Z,58.30
2018-05-17T09:35:14.874Z,60.20
2018-05-17T09:37:42.432Z,61.30
2018-05-17T09:40:10.611Z,61.30
2018-05-17T09:42:38.073Z,60.20
2018-05-17T09:45:05.490Z,60.30
2018-05-17T09:47:33.716Z,58.80
2018-05-17T09:50:01.132Z,58.80
2018-05-17T09:52:28.566Z,56.70
2018-05-17T09:54:57.005Z,54.80
2018-05-17T09:57:24.422Z,54.70
2018-05-17T09:59:52.186Z,53.60
2018-05-17T10:02:19.622Z,55.90
2018-05-17T10:04:47.067Z,56.60
2018-05-17T10:07:14.588Z,57.50
2018-05-17T10:09:42.013Z,59.00
2018-05-17T10:12:10.224Z,59.70
2018-05-17T10:14:38.723Z,59.70
2018-05-17T10:17:06.143Z,57.10
2018-05-17T10:19:34.446Z,52.70
2018-05-17T10:22:02.661Z,50.30
2018-05-17T10:24:30.857Z,52.10
2018-05-17T10:26:59.099Z,53.20
2018-05-17T10:29:27.306Z,56.90
2018-05-17T10:31:55.485Z,55.70
2018-05-17T10:34:22.986Z,55.70
2018-05-17T10:36:50.530Z,54.60
2018-05-17T10:39:18.021Z,55.90
2018-05-17T10:41:46.277Z,57.50
2018-05-17T10:44:13.706Z,58.40
2018-05-17T10:46:41.147Z,58.70
2018-05-17T10:49:09.337Z,55.80
2018-05-17T10:51:36.813Z,55.80
2018-05-17T10:54:04.264Z,57.00
2018-05-17T10:56:31.962Z,56.40
2018-05-17T10:58:59.424Z,58.40
2018-05-17T11:01:26.866Z,58.40
2018-05-17T11:03:54.308Z,56.60
2018-05-17T11:06:21.786Z,56.80
2018-05-17T11:08:49.227Z,56.80
2018-05-17T11:11:16.634Z,58.90
2018-05-17T11:13:44.870Z,59.80
2018-05-17T11:16:12.632Z,59.80
2018-05-17T11:18:40.054Z,61.70
2018-05-17T11:21:08.533Z,62.20
2018-05-17T11:23:36.758Z,61.60
2018-05-17T11:26:04.183Z,60.80
2018-05-17T11:28:31.678Z,61.90
2018-05-17T11:30:59.181Z,63.40
2018-05-17T11:33:27.365Z,63.60
2018-05-17T11:35:54.954Z,63.60
2018-05-17T11:38:22.387Z,64.90
2018-05-17T11:40:49.852Z,64.20
2018-05-17T11:43:17.282Z,63.20
2018-05-17T11:45:45.487Z,66.10
2018-05-17T11:48:12.915Z,66.00
2018-05-17T11:50:41.232Z,67.10
2018-05-17T11:53:08.716Z,67.00
2018-05-17T11:55:36.182Z,67.60
2018-05-17T11:58:03.615Z,68.80
2018-05-17T12:00:31.118Z,69.70
2018-05-17T12:02:58.539Z,69.70
2018-05-17T12:05:25.957Z,69.80
2018-05-17T12:07:53.390Z,69.30
2018-05-17T12:10:21.606Z,73.30
2018-05-17T12:12:49.059Z,73.30
2018-05-17T12:15:16.623Z,72.50
2018-05-17T12:17:44.098Z,73.00
2018-05-17T12:20:11.526Z,71.90
2018-05-17T12:22:39.058Z,73.60
2018-05-17T12:25:06.570Z,74.00
2018-05-17T12:27:33.999Z,75.70
2018-05-17T12:30:01.590Z,76.10
2018-05-17T12:32:29.058Z,76.90
2018-05-17T12:34:56.485Z,78.10
2018-05-17T12:37:24.092Z,78.80
2018-05-17T12:39:51.513Z,78.30
2018-05-17T12:42:18.981Z,79.30
2018-05-17T12:44:46.390Z,80.80
2018-05-17T12:47:14.586Z,79.60
2018-05-17T12:49:42.950Z,78.40
2018-05-17T12:52:11.359Z,78.40
2018-05-17T12:54:40.358Z,78.40
2018-05-17T12:57:07.874Z,78.90
2018-05-17T12:59:36.879Z,78.90
2018-05-17T13:02:04.784Z,79.50
2018-05-17T13:04:33.209Z,79.20
2018-05-17T13:07:00.710Z,79.30
2018-05-17T13:09:28.178Z,79.80
2018-05-17T13:11:56.295Z,81.00
2018-05-17T13:14:23.714Z,79.70
2018-05-17T13:16:51.663Z,78.80
2018-05-17T13:19:19.091Z,79.40
2018-05-17T13:21:46.554Z,80.20
2018-05-17T13:24:14.359Z,80.80
2018-05-17T13:26:41.786Z,79.80
2018-05-17T13:29:10.054Z,80.40
2018-05-17T13:31:38.270Z,80.20
2018-05-17T13:34:06.563Z,80.10
2018-05-17T13:36:34.034Z,80.50
2018-05-17T13:39:01.463Z,81.60
2018-05-17T13:41:28.881Z,81.40
2018-05-17T13:43:57.109Z,82.00
2018-05-17T13:46:24.553Z,82.00
2018-05-17T13:48:52.003Z,82.90
2018-05-17T13:51:19.485Z,83.00
2018-05-17T13:53:48.010Z,82.20
2018-05-17T13:56:16.203Z,82.40
2018-05-17T13:58:43.681Z,82.20
2018-05-17T14:01:11.187Z,83.50
2018-05-17T14:03:38.633Z,82.80
2018-05-17T14:06:06.062Z,83.80
2018-05-17T14:08:33.492Z,84.30
2018-05-17T14:11:01.677Z,84.00
2018-05-17T14:13:29.255Z,83.90
2018-05-17T14:15:56.701Z,84.60
2018-05-17T14:18:24.159Z,85.90
2018-05-17T14:20:51.631Z,84.20
2018-05-17T14:23:19.357Z,85.10
2018-05-17T14:25:47.618Z,85.70
2018-05-17T14:28:16.117Z,85.10
2018-05-17T14:30:44.309Z,85.00
2018-05-17T14:33:11.758Z,85.10
2018-05-17T14:35:39.183Z,86.00
2018-05-17T14:38:06.699Z,85.60
2018-05-17T14:40:34.130Z,86.00
2018-05-17T14:43:01.623Z,84.90
2018-05-17T14:45:29.386Z,86.90
2018-05-17T14:47:56.805Z,86.50
2018-05-17T14:50:27.212Z,87.10
2018-05-17T14:52:54.638Z,87.30
2018-05-17T14:55:22.065Z,87.60
2018-05-17T14:57:49.646Z,86.50
2018-05-17T15:00:17.147Z,87.10
2018-05-17T15:02:45.067Z,86.90
2018-05-17T15:05:13.154Z,87.70
2018-05-17T15:07:40.584Z,89.40
2018-05-17T15:10:08.182Z,90.20
2018-05-17T15:12:35.621Z,90.40
2018-05-17T15:15:03.046Z,90.10
2018-05-17T15:17:30.530Z,90.90
2018-05-17T15:19:57.962Z,91.10
2018-05-17T15:22:25.554Z,91.00
2018-05-17T15:24:52.995Z,90.50
2018-05-17T15:27:20.563Z,90.50
2018-05-17T15:29:48.260Z,90.60
2018-05-17T15:32:15.725Z,90.30
2018-05-17T15:34:43.154Z,91.10
2018-05-17T15:37:10.592Z,91.30
2018-05-17T15:39:38.014Z,91.00
2018-05-17T15:42:06.210Z,91.10
2018-05-17T15:44:33.716Z,91.20
2018-05-17T15:47:02.120Z,90.60
2018-05-17T15:49:30.311Z,91.70
2018-05-17T15:51:59.497Z,91.30
2018-05-17T15:54:28.221Z,91.00
2018-05-17T15:56:55.690Z,90.90
2018-05-17T15:59:23.142Z,92.20
2018-05-17T16:01:50.622Z,92.10
2018-05-17T16:04:18.048Z,92.30
2018-05-17T16:06:45.501Z,92.20
2018-05-17T16:09:13.106Z,92.50
2018-05-17T16:11:40.546Z,91.90
2018-05-17T16:14:07.974Z,92.80
2018-05-17T16:16:35.446Z,92.40
2018-05-17T16:19:03.011Z,92.10
2018-05-17T16:21:30.433Z,92.20
2018-05-17T16:23:58.647Z,92.70
2018-05-17T16:26:26.076Z,92.70
2018-05-17T16:28:53.532Z,92.70
2018-05-17T16:31:21.737Z,92.50
2018-05-17T16:33:49.169Z,92.60
2018-05-17T16:36:16.599Z,91.90
2018-05-17T16:38:45.051Z,92.80
2018-05-17T16:41:14.495Z,92.80
2018-05-17T16:43:42.763Z,92.30
2018-05-17T16:46:10.959Z,93.00
2018-05-17T16:48:38.404Z,93.00
2018-05-17T16:51:06.719Z,93.00
2018-05-17T16:53:34.175Z,93.00
2018-05-17T16:56:01.648Z,93.70
2018-05-17T16:58:29.094Z,93.60
2018-05-17T17:00:56.527Z,93.80
2018-05-17T17:03:23.958Z,94.10
2018-05-17T17:05:52.161Z,94.70
2018-05-17T17:08:19.595Z,94.70
2018-05-17T17:10:47.851Z,94.90
2018-05-17T17:13:15.319Z,94.90
2018-05-17T17:15:43.609Z,95.70
2018-05-17T17:18:10.984Z,95.30
2018-05-17T17:20:38.470Z,96.10
2018-05-17T17:23:05.915Z,95.50
2018-05-17T17:25:33.340Z,95.60
2018-05-17T17:28:01.772Z,95.90
2018-05-17T17:30:32.127Z,95.90
2018-05-17T17:32:59.788Z,95.20
2018-05-17T17:35:27.550Z,95.60
2018-05-17T17:37:54.983Z,95.70
2018-05-17T17:40:22.413Z,96.10
2018-05-17T17:42:50.702Z,95.60
2018-05-17T17:45:23.212Z,96.00
2018-05-17T17:47:50.946Z,96.30
2018-05-17T17:50:18.382Z,95.40
2018-05-17T17:52:45.894Z,95.90
2018-05-17T17:55:13.671Z,95.10
2018-05-17T17:57:41.823Z,95.40
2018-05-17T18:00:09.416Z,95.50
2018-05-17T18:02:36.827Z,95.80
2018-05-17T18:05:04.371Z,96.00
2018-05-17T18:07:32.249Z,95.00
2018-05-17T18:09:59.866Z,96.00
2018-05-17T18:12:28.074Z,96.60
2018-05-17T18:14:56.310Z,96.50
2018-05-17T18:17:25.042Z,95.90
2018-05-17T18:19:52.482Z,96.10
2018-05-17T18:22:20.425Z,96.00
2018-05-17T18:24:48.990Z,96.10
2018-05-17T18:27:16.574Z,96.10
2018-05-17T18:29:44.842Z,95.90
2018-05-17T18:32:13.291Z,95.70
2018-05-17T18:34:40.768Z,95.30
2018-05-17T18:37:08.469Z,95.30
2018-05-17T18:39:36.178Z,95.10
2018-05-17T18:42:03.614Z,95.70
2018-05-17T18:44:31.637Z,95.00
2018-05-17T18:47:00.291Z,95.20
2018-05-17T18:49:27.761Z,95.20
2018-05-17T18:51:55.187Z,95.10
2018-05-17T18:54:22.622Z,95.60
2018-05-17T18:56:50.518Z,95.20
2018-05-17T18:59:18.399Z,95.80
2018-05-17T19:01:45.846Z,95.70
2018-05-17T19:04:13.266Z,96.10
2018-05-17T19:06:40.727Z,96.10
2018-05-17T19:09:08.155Z,95.80
2018-05-17T19:11:36.615Z,96.00
2018-05-17T19:14:04.202Z,96.00
2018-05-17T19:16:31.546Z,95.30
2018-05-17T19:18:58.999Z,96.70
2018-05-17T19:21:26.442Z,96.60
2018-05-17T19:23:55.398Z,97.00
2018-05-17T19:26:22.838Z,97.00
2018-05-17T19:28:50.635Z,95.40
2018-05-17T19:31:18.065Z,95.90
2018-05-17T19:33:45.548Z,96.20
2018-05-17T19:36:12.916Z,94.90
2018-05-17T19:38:41.108Z,95.40
2018-05-17T19:41:09.344Z,96.50
2018-05-17T19:43:36.787Z,96.60
2018-05-17T19:46:04.215Z,95.90
2018-05-17T19:48:32.409Z,96.80
2018-05-17T19:51:01.356Z,96.70
2018-05-17T19:53:29.414Z,95.90
2018-05-17T19:55:57.066Z,96.10
2018-05-17T19:58:24.777Z,96.80
2018-05-17T20:00:53.006Z,96.00
2018-05-17T20:03:20.698Z,95.70
2018-05-17T20:05:48.134Z,96.90
2018-05-17T20:08:15.575Z,97.40
2018-05-17T20:10:43.002Z,96.90
2018-05-17T20:13:11.245Z,97.10
2018-05-17T20:15:38.774Z,97.10
2018-05-17T20:18:06.662Z,96.50
2018-05-17T20:20:34.300Z,96.70
2018-05-17T20:23:01.726Z,96.70
2018-05-17T20:25:30.039Z,96.50
2018-05-17T20:27:57.517Z,96.50
2018-05-17T20:30:24.986Z,96.00
2018-05-17T20:32:52.385Z,96.50
2018-05-17T20:35:19.869Z,97.10
2018-05-17T20:37:47.307Z,96.30
2018-05-17T20:40:14.730Z,96.40
2018-05-17T20:42:43.010Z,96.90
2018-05-17T20:45:11.259Z,97.00
2018-05-17T20:47:38.694Z,97.00
2018-05-17T20:50:06.170Z,96.50
2018-05-17T20:52:33.821Z,96.30
2018-05-17T20:55:01.242Z,95.60
2018-05-17T20:57:28.726Z,96.50
2018-05-17T20:59:56.174Z,96.20
2018-05-17T21:02:23.738Z,95.40
2018-05-17T21:04:51.170Z,95.30
2018-05-17T21:07:19.376Z,95.50
2018-05-17T21:09:46.807Z,95.50
2018-05-17T21:12:14.395Z,96.60
2018-05-17T21:14:41.839Z,95.70
2018-05-17T21:17:09.278Z,96.50
2018-05-17T21:19:36.705Z,96.60
2018-05-17T21:22:04.162Z,96.70
2018-05-17T21:24:32.361Z,95.80
2018-05-17T21:27:00.545Z,95.70
2018-05-17T21:29:27.974Z,95.70
2018-05-17T21:31:55.481Z,96.30
2018-05-17T21:34:23.023Z,95.80
2018-05-17T21:36:50.541Z,96.10
2018-05-17T21:39:18.758Z,96.90
2018-05-17T21:41:46.194Z,96.90
2018-05-17T21:44:14.383Z,96.00
2018-05-17T21:46:41.905Z,96.00
2018-05-17T21:49:11.095Z,96.10
2018-05-17T21:51:38.521Z,96.10
2018-05-17T21:54:05.953Z,94.90
2018-05-17T21:56:34.175Z,95.60
2018-05-17T21:59:02.415Z,95.90
2018-05-17T22:01:30.819Z,96.00
2018-05-17T22:03:58.269Z,96.10
2018-05-17T22:06:25.729Z,95.10
2018-05-17T22:08:53.890Z,95.20
2018-05-17T22:11:21.591Z,95.70
2018-05-17T22:13:49.026Z,95.80
2018-05-17T22:16:18.783Z,95.60
2018-05-17T22:18:47.005Z,96.30
2018-05-17T22:21:14.446Z,96.00
2018-05-17T22:23:42.039Z,95.20
2018-05-17T22:26:09.584Z,96.40
2018-05-17T22:28:37.111Z,95.70
2018-05-17T22:31:05.312Z,95.30
2018-05-17T22:33:32.802Z,95.30
2018-05-17T22:36:00.409Z,95.80
2018-05-17T22:38:28.622Z,95.30
2018-05-17T22:40:56.480Z,95.30
2018-05-17T22:43:23.937Z,96.00
2018-05-17T22:45:51.353Z,96.00
2018-05-17T22:48:19.671Z,96.40
2018-05-17T22:50:47.161Z,96.10
2018-05-17T22:53:14.637Z,95.70
2018-05-17T22:55:42.053Z,95.70
2018-05-17T22:58:21.584Z,96.00
2018-05-17T23:03:28.400Z,95.80
2018-05-17T23:05:55.828Z,95.60
2018-05-17T23:08:24.242Z,94.60
2018-05-17T23:10:51.778Z,96.10
2018-05-17T23:13:19.211Z,96.20
2018-05-17T23:15:46.718Z,95.90
2018-05-17T23:18:14.272Z,95.10
